sensor_id;sensor_type;location;lat;lon;timestamp;temperature;humidity
14699;DHT22;7439;50.804;4.602;2022-10-16T00:01:05;12.20;1.00
14699;DHT22;7439;50.804;4.602;2022-10-16T00:03:34;12.20;1.00
14699;DHT22;7439;50.804;4.602;2022-10-16T00:06:02;12.10;99.90
14699;DHT22;7439;50.804;4.602;2022-10-16T00:08:30;12.10;99.90
14699;DHT22;7439;50.804;4.602;2022-10-16T00:11:01;12.00;1.00
14699;DHT22;7439;50.804;4.602;2022-10-16T00:13:29;12.00;1.00
14699;DHT22;7439;50.804;4.602;2022-10-16T00:15:58;12.10;1.00
14699;DHT22;7439;50.804;4.602;2022-10-16T00:18:25;12.10;1.00
14699;DHT22;7439;50.804;4.602;2022-10-16T00:20:55;12.20;99.90
14699;DHT22;7439;50.804;4.602;2022-10-16T00:23:22;12.10;99.90
14699;DHT22;7439;50.804;4.602;2022-10-16T00:25:56;12.10;99.90
14699;DHT22;7439;50.804;4.602;2022-10-16T00:28:24;12.00;31.60
14699;DHT22;7439;50.804;4.602;2022-10-16T00:30:51;12.00;1.00
14699;DHT22;7439;50.804;4.602;2022-10-16T00:33:19;11.90;1.00
14699;DHT22;7439;50.804;4.602;2022-10-16T00:35:46;11.90;1.00
14699;DHT22;7439;50.804;4.602;2022-10-16T00:38:15;11.80;1.00
14699;DHT22;7439;50.804;4.602;2022-10-16T00:40:42;11.70;1.00
14699;DHT22;7439;50.804;4.602;2022-10-16T00:43:13;11.60;1.00
14699;DHT22;7439;50.804;4.602;2022-10-16T00:45:41;11.60;1.90
14699;DHT22;7439;50.804;4.602;2022-10-16T00:48:11;11.50;97.00
14699;DHT22;7439;50.804;4.602;2022-10-16T00:50:40;11.50;99.90
14699;DHT22;7439;50.804;4.602;2022-10-16T00:53:10;11.50;99.90
14699;DHT22;7439;50.804;4.602;2022-10-16T00:55:39;11.40;99.90
14699;DHT22;7439;50.804;4.602;2022-10-16T00:58:06;11.50;99.90
14699;DHT22;7439;50.804;4.602;2022-10-16T01:00:34;11.40;1.00
14699;DHT22;7439;50.804;4.602;2022-10-16T01:03:03;11.40;1.00
14699;DHT22;7439;50.804;4.602;2022-10-16T01:05:35;11.40;1.00
14699;DHT22;7439;50.804;4.602;2022-10-16T01:08:09;11.30;1.00
14699;DHT22;7439;50.804;4.602;2022-10-16T01:10:44;11.30;1.00
14699;DHT22;7439;50.804;4.602;2022-10-16T01:13:23;11.30;1.00
14699;DHT22;7439;50.804;4.602;2022-10-16T01:15:54;11.30;1.00
14699;DHT22;7439;50.804;4.602;2022-10-16T01:18:28;11.10;1.00
14699;DHT22;7439;50.804;4.602;2022-10-16T01:21:01;11.00;1.00
14699;DHT22;7439;50.804;4.602;2022-10-16T01:23:38;11.00;10.70
14699;DHT22;7439;50.804;4.602;2022-10-16T01:26:23;11.00;99.90
14699;DHT22;7439;50.804;4.602;2022-10-16T01:28:55;11.00;99.90
14699;DHT22;7439;50.804;4.602;2022-10-16T01:31:27;11.10;1.00
14699;DHT22;7439;50.804;4.602;2022-10-16T01:34:00;11.20;1.00
14699;DHT22;7439;50.804;4.602;2022-10-16T01:36:34;11.30;1.00
14699;DHT22;7439;50.804;4.602;2022-10-16T01:39:03;11.30;94.80
14699;DHT22;7439;50.804;4.602;2022-10-16T01:41:33;11.40;99.90
14699;DHT22;7439;50.804;4.602;2022-10-16T01:44:05;11.40;99.90
14699;DHT22;7439;50.804;4.602;2022-10-16T01:46:36;11.40;99.90
14699;DHT22;7439;50.804;4.602;2022-10-16T01:49:05;11.40;99.90
14699;DHT22;7439;50.804;4.602;2022-10-16T01:51:34;11.40;99.90
14699;DHT22;7439;50.804;4.602;2022-10-16T01:54:02;11.40;99.90
14699;DHT22;7439;50.804;4.602;2022-10-16T01:56:32;11.20;99.90
14699;DHT22;7439;50.804;4.602;2022-10-16T01:59:06;11.10;99.90
14699;DHT22;7439;50.804;4.602;2022-10-16T02:01:35;11.00;99.90
14699;DHT22;7439;50.804;4.602;2022-10-16T02:04:11;11.00;99.90
14699;DHT22;7439;50.804;4.602;2022-10-16T02:06:40;10.90;99.90
14699;DHT22;7439;50.804;4.602;2022-10-16T02:09:07;10.80;99.90
14699;DHT22;7439;50.804;4.602;2022-10-16T02:11:34;10.80;99.90
14699;DHT22;7439;50.804;4.602;2022-10-16T02:14:05;10.80;1.00
14699;DHT22;7439;50.804;4.602;2022-10-16T02:16:34;10.80;1.00
14699;DHT22;7439;50.804;4.602;2022-10-16T02:19:02;10.70;1.00
14699;DHT22;7439;50.804;4.602;2022-10-16T02:21:35;10.80;99.90
14699;DHT22;7439;50.804;4.602;2022-10-16T02:24:09;10.80;99.90
14699;DHT22;7439;50.804;4.602;2022-10-16T02:26:43;10.90;1.00
14699;DHT22;7439;50.804;4.602;2022-10-16T02:29:16;11.00;1.00
14699;DHT22;7439;50.804;4.602;2022-10-16T02:31:48;11.10;99.90
14699;DHT22;7439;50.804;4.602;2022-10-16T02:34:18;11.10;99.90
14699;DHT22;7439;50.804;4.602;2022-10-16T02:36:49;11.20;99.90
14699;DHT22;7439;50.804;4.602;2022-10-16T02:39:17;11.30;1.00
14699;DHT22;7439;50.804;4.602;2022-10-16T02:41:45;11.30;1.00
14699;DHT22;7439;50.804;4.602;2022-10-16T02:44:14;11.30;1.00
14699;DHT22;7439;50.804;4.602;2022-10-16T02:46:41;11.30;1.00
14699;DHT22;7439;50.804;4.602;2022-10-16T02:49:08;11.20;1.00
14699;DHT22;7439;50.804;4.602;2022-10-16T02:51:35;11.20;64.40
14699;DHT22;7439;50.804;4.602;2022-10-16T02:54:03;11.10;1.00
14699;DHT22;7439;50.804;4.602;2022-10-16T02:56:30;11.00;27.70
14699;DHT22;7439;50.804;4.602;2022-10-16T02:58:57;11.00;81.90
14699;DHT22;7439;50.804;4.602;2022-10-16T03:01:25;10.90;99.90
14699;DHT22;7439;50.804;4.602;2022-10-16T03:03:52;10.90;99.90
14699;DHT22;7439;50.804;4.602;2022-10-16T03:06:19;10.80;99.90
14699;DHT22;7439;50.804;4.602;2022-10-16T03:08:46;10.70;99.90
14699;DHT22;7439;50.804;4.602;2022-10-16T03:11:14;10.70;1.00
14699;DHT22;7439;50.804;4.602;2022-10-16T03:13:41;10.80;1.00
14699;DHT22;7439;50.804;4.602;2022-10-16T03:16:08;10.80;1.00
14699;DHT22;7439;50.804;4.602;2022-10-16T03:18:37;10.90;99.90
14699;DHT22;7439;50.804;4.602;2022-10-16T03:21:04;10.90;1.00
14699;DHT22;7439;50.804;4.602;2022-10-16T03:23:31;11.00;1.00
14699;DHT22;7439;50.804;4.602;2022-10-16T03:25:58;11.00;1.00
14699;DHT22;7439;50.804;4.602;2022-10-16T03:28:25;11.10;99.90
14699;DHT22;7439;50.804;4.602;2022-10-16T03:30:52;11.10;1.00
14699;DHT22;7439;50.804;4.602;2022-10-16T03:33:20;11.20;1.00
14699;DHT22;7439;50.804;4.602;2022-10-16T03:35:53;11.20;1.00
14699;DHT22;7439;50.804;4.602;2022-10-16T03:38:21;11.10;92.50
14699;DHT22;7439;50.804;4.602;2022-10-16T03:40:48;11.10;99.90
14699;DHT22;7439;50.804;4.602;2022-10-16T03:43:15;11.00;99.90
14699;DHT22;7439;50.804;4.602;2022-10-16T03:45:42;11.00;99.90
14699;DHT22;7439;50.804;4.602;2022-10-16T03:48:09;10.90;99.90
14699;DHT22;7439;50.804;4.602;2022-10-16T03:50:37;11.00;1.00
14699;DHT22;7439;50.804;4.602;2022-10-16T03:53:05;10.90;1.00
14699;DHT22;7439;50.804;4.602;2022-10-16T03:55:32;10.90;1.00
14699;DHT22;7439;50.804;4.602;2022-10-16T03:57:59;10.90;99.90
14699;DHT22;7439;50.804;4.602;2022-10-16T04:00:27;10.90;99.90
14699;DHT22;7439;50.804;4.602;2022-10-16T04:02:54;10.90;1.00
14699;DHT22;7439;50.804;4.602;2022-10-16T04:05:21;11.00;1.00
14699;DHT22;7439;50.804;4.602;2022-10-16T04:07:48;10.90;1.00
14699;DHT22;7439;50.804;4.602;2022-10-16T04:10:16;10.90;57.40
14699;DHT22;7439;50.804;4.602;2022-10-16T04:12:44;10.90;99.90
14699;DHT22;7439;50.804;4.602;2022-10-16T04:15:11;10.90;99.90
14699;DHT22;7439;50.804;4.602;2022-10-16T04:17:38;10.90;99.90
14699;DHT22;7439;50.804;4.602;2022-10-16T04:20:06;10.90;99.90
14699;DHT22;7439;50.804;4.602;2022-10-16T04:22:33;11.00;1.00
14699;DHT22;7439;50.804;4.602;2022-10-16T04:25:00;10.90;1.00
14699;DHT22;7439;50.804;4.602;2022-10-16T04:27:28;11.00;1.00
14699;DHT22;7439;50.804;4.602;2022-10-16T04:29:57;11.00;1.00
14699;DHT22;7439;50.804;4.602;2022-10-16T04:32:24;11.00;1.00
14699;DHT22;7439;50.804;4.602;2022-10-16T04:34:51;11.00;1.00
14699;DHT22;7439;50.804;4.602;2022-10-16T04:37:19;11.00;1.00
14699;DHT22;7439;50.804;4.602;2022-10-16T04:39:46;11.00;27.30
14699;DHT22;7439;50.804;4.602;2022-10-16T04:42:13;11.00;90.10
14699;DHT22;7439;50.804;4.602;2022-10-16T04:44:41;11.00;99.90
14699;DHT22;7439;50.804;4.602;2022-10-16T04:47:09;11.00;99.90
14699;DHT22;7439;50.804;4.602;2022-10-16T04:49:36;11.10;99.90
14699;DHT22;7439;50.804;4.602;2022-10-16T04:52:03;11.10;99.90
14699;DHT22;7439;50.804;4.602;2022-10-16T04:54:30;11.10;99.90
14699;DHT22;7439;50.804;4.602;2022-10-16T04:56:58;11.00;99.90
14699;DHT22;7439;50.804;4.602;2022-10-16T04:59:24;11.00;99.90
14699;DHT22;7439;50.804;4.602;2022-10-16T05:01:53;11.00;99.90
14699;DHT22;7439;50.804;4.602;2022-10-16T05:04:20;11.10;99.90
14699;DHT22;7439;50.804;4.602;2022-10-16T05:06:47;11.10;99.90
14699;DHT22;7439;50.804;4.602;2022-10-16T05:09:15;11.10;99.90
14699;DHT22;7439;50.804;4.602;2022-10-16T05:11:42;11.10;99.90
14699;DHT22;7439;50.804;4.602;2022-10-16T05:14:09;11.20;99.90
14699;DHT22;7439;50.804;4.602;2022-10-16T05:16:36;11.20;99.90
14699;DHT22;7439;50.804;4.602;2022-10-16T05:19:04;11.30;99.90
14699;DHT22;7439;50.804;4.602;2022-10-16T05:21:31;11.30;99.90
14699;DHT22;7439;50.804;4.602;2022-10-16T05:23:58;11.30;99.90
14699;DHT22;7439;50.804;4.602;2022-10-16T05:26:25;11.30;99.90
14699;DHT22;7439;50.804;4.602;2022-10-16T05:28:52;11.40;99.90
14699;DHT22;7439;50.804;4.602;2022-10-16T05:31:20;11.40;99.90
14699;DHT22;7439;50.804;4.602;2022-10-16T05:33:47;11.40;99.90
14699;DHT22;7439;50.804;4.602;2022-10-16T05:36:15;11.30;99.90
14699;DHT22;7439;50.804;4.602;2022-10-16T05:38:44;11.30;99.90
14699;DHT22;7439;50.804;4.602;2022-10-16T05:41:11;11.30;99.90
14699;DHT22;7439;50.804;4.602;2022-10-16T05:43:38;11.30;99.90
14699;DHT22;7439;50.804;4.602;2022-10-16T05:46:05;11.20;99.90
14699;DHT22;7439;50.804;4.602;2022-10-16T05:48:33;11.20;99.90
14699;DHT22;7439;50.804;4.602;2022-10-16T05:51:02;11.10;99.90
14699;DHT22;7439;50.804;4.602;2022-10-16T05:53:32;11.20;99.90
14699;DHT22;7439;50.804;4.602;2022-10-16T05:55:59;11.10;99.90
14699;DHT22;7439;50.804;4.602;2022-10-16T05:58:29;11.10;99.90
14699;DHT22;7439;50.804;4.602;2022-10-16T06:00:57;11.20;99.90
14699;DHT22;7439;50.804;4.602;2022-10-16T06:03:25;11.20;99.90
14699;DHT22;7439;50.804;4.602;2022-10-16T06:05:53;11.20;99.90
14699;DHT22;7439;50.804;4.602;2022-10-16T06:08:21;11.20;99.90
14699;DHT22;7439;50.804;4.602;2022-10-16T06:11:00;11.20;99.90
14699;DHT22;7439;50.804;4.602;2022-10-16T06:13:27;11.20;99.90
14699;DHT22;7439;50.804;4.602;2022-10-16T06:15:57;11.30;99.90
14699;DHT22;7439;50.804;4.602;2022-10-16T06:18:24;11.20;99.90
14699;DHT22;7439;50.804;4.602;2022-10-16T06:20:51;11.20;99.90
14699;DHT22;7439;50.804;4.602;2022-10-16T06:23:19;11.20;99.90
14699;DHT22;7439;50.804;4.602;2022-10-16T06:25:46;11.20;99.90
14699;DHT22;7439;50.804;4.602;2022-10-16T06:28:15;11.20;99.90
14699;DHT22;7439;50.804;4.602;2022-10-16T06:30:43;11.10;99.90
14699;DHT22;7439;50.804;4.602;2022-10-16T06:33:10;11.10;99.90
14699;DHT22;7439;50.804;4.602;2022-10-16T06:35:37;11.10;99.90
14699;DHT22;7439;50.804;4.602;2022-10-16T06:38:04;11.10;99.90
14699;DHT22;7439;50.804;4.602;2022-10-16T06:40:31;11.10;99.90
14699;DHT22;7439;50.804;4.602;2022-10-16T06:42:59;11.10;99.90
14699;DHT22;7439;50.804;4.602;2022-10-16T06:45:27;11.20;99.90
14699;DHT22;7439;50.804;4.602;2022-10-16T06:47:54;11.20;99.90
14699;DHT22;7439;50.804;4.602;2022-10-16T06:50:21;11.30;99.90
14699;DHT22;7439;50.804;4.602;2022-10-16T06:52:49;11.40;99.90
14699;DHT22;7439;50.804;4.602;2022-10-16T06:55:16;11.50;99.90
14699;DHT22;7439;50.804;4.602;2022-10-16T06:57:43;11.60;99.90
14699;DHT22;7439;50.804;4.602;2022-10-16T07:00:13;11.60;99.90
14699;DHT22;7439;50.804;4.602;2022-10-16T07:02:42;11.80;99.90
14699;DHT22;7439;50.804;4.602;2022-10-16T07:05:09;11.90;99.90
14699;DHT22;7439;50.804;4.602;2022-10-16T07:07:36;11.90;99.90
14699;DHT22;7439;50.804;4.602;2022-10-16T07:10:04;12.00;99.90
14699;DHT22;7439;50.804;4.602;2022-10-16T07:12:31;12.10;99.90
14699;DHT22;7439;50.804;4.602;2022-10-16T07:14:58;12.30;99.90
14699;DHT22;7439;50.804;4.602;2022-10-16T07:17:25;12.40;99.90
14699;DHT22;7439;50.804;4.602;2022-10-16T07:19:54;12.50;99.90
14699;DHT22;7439;50.804;4.602;2022-10-16T07:22:21;12.60;99.90
14699;DHT22;7439;50.804;4.602;2022-10-16T07:24:48;12.80;99.90
14699;DHT22;7439;50.804;4.602;2022-10-16T07:27:16;12.90;99.90
14699;DHT22;7439;50.804;4.602;2022-10-16T07:29:43;13.00;99.90
14699;DHT22;7439;50.804;4.602;2022-10-16T07:32:10;13.20;99.90
14699;DHT22;7439;50.804;4.602;2022-10-16T07:34:37;13.50;99.90
14699;DHT22;7439;50.804;4.602;2022-10-16T07:37:06;13.70;99.90
14699;DHT22;7439;50.804;4.602;2022-10-16T07:39:33;13.70;99.90
14699;DHT22;7439;50.804;4.602;2022-10-16T07:42:00;13.80;99.90
14699;DHT22;7439;50.804;4.602;2022-10-16T07:44:27;13.80;99.90
14699;DHT22;7439;50.804;4.602;2022-10-16T07:46:54;13.70;99.90
14699;DHT22;7439;50.804;4.602;2022-10-16T07:49:21;13.80;99.90
14699;DHT22;7439;50.804;4.602;2022-10-16T07:51:49;13.90;99.90
14699;DHT22;7439;50.804;4.602;2022-10-16T07:54:17;14.20;78.90
14699;DHT22;7439;50.804;4.602;2022-10-16T07:56:44;14.30;1.00
14699;DHT22;7439;50.804;4.602;2022-10-16T07:59:12;14.80;1.00
14699;DHT22;7439;50.804;4.602;2022-10-16T08:01:39;15.30;1.00
14699;DHT22;7439;50.804;4.602;2022-10-16T08:04:08;15.50;1.00
14699;DHT22;7439;50.804;4.602;2022-10-16T08:06:37;15.60;1.00
14699;DHT22;7439;50.804;4.602;2022-10-16T08:09:04;16.00;99.90
14699;DHT22;7439;50.804;4.602;2022-10-16T08:11:33;16.20;99.90
14699;DHT22;7439;50.804;4.602;2022-10-16T08:14:00;16.50;1.00
14699;DHT22;7439;50.804;4.602;2022-10-16T08:16:28;16.90;1.00
14699;DHT22;7439;50.804;4.602;2022-10-16T08:18:55;17.20;1.00
14699;DHT22;7439;50.804;4.602;2022-10-16T08:21:23;17.30;99.90
14699;DHT22;7439;50.804;4.602;2022-10-16T08:23:50;17.50;1.00
14699;DHT22;7439;50.804;4.602;2022-10-16T08:26:17;17.50;90.10
14699;DHT22;7439;50.804;4.602;2022-10-16T08:28:49;17.50;1.00
14699;DHT22;7439;50.804;4.602;2022-10-16T08:31:16;17.30;99.90
14699;DHT22;7439;50.804;4.602;2022-10-16T08:33:44;17.30;99.90
14699;DHT22;7439;50.804;4.602;2022-10-16T08:36:13;17.50;99.90
14699;DHT22;7439;50.804;4.602;2022-10-16T08:38:40;17.60;78.60
14699;DHT22;7439;50.804;4.602;2022-10-16T08:41:23;17.80;1.00
14699;DHT22;7439;50.804;4.602;2022-10-16T08:44:18;18.10;1.00
14699;DHT22;7439;50.804;4.602;2022-10-16T08:46:53;17.90;1.00
14699;DHT22;7439;50.804;4.602;2022-10-16T08:49:23;18.00;1.00
14699;DHT22;7439;50.804;4.602;2022-10-16T08:51:51;18.30;1.00
14699;DHT22;7439;50.804;4.602;2022-10-16T08:54:27;18.60;1.00
14699;DHT22;7439;50.804;4.602;2022-10-16T08:56:56;18.90;99.90
14699;DHT22;7439;50.804;4.602;2022-10-16T08:59:24;18.90;99.90
14699;DHT22;7439;50.804;4.602;2022-10-16T09:01:52;19.20;99.90
14699;DHT22;7439;50.804;4.602;2022-10-16T09:04:49;19.20;99.90
14699;DHT22;7439;50.804;4.602;2022-10-16T09:07:22;19.30;99.90
14699;DHT22;7439;50.804;4.602;2022-10-16T09:10:08;19.20;99.90
14699;DHT22;7439;50.804;4.602;2022-10-16T09:12:52;19.70;99.90
14699;DHT22;7439;50.804;4.602;2022-10-16T09:15:27;19.80;99.90
14699;DHT22;7439;50.804;4.602;2022-10-16T09:18:01;19.90;99.90
14699;DHT22;7439;50.804;4.602;2022-10-16T09:20:35;20.00;99.90
14699;DHT22;7439;50.804;4.602;2022-10-16T09:23:16;19.80;99.90
14699;DHT22;7439;50.804;4.602;2022-10-16T09:25:45;19.70;99.90
14699;DHT22;7439;50.804;4.602;2022-10-16T09:28:15;19.80;99.90
14699;DHT22;7439;50.804;4.602;2022-10-16T09:30:44;19.90;99.90
14699;DHT22;7439;50.804;4.602;2022-10-16T09:33:12;20.10;99.90
14699;DHT22;7439;50.804;4.602;2022-10-16T09:35:42;20.20;99.90
14699;DHT22;7439;50.804;4.602;2022-10-16T09:38:21;20.70;99.90
14699;DHT22;7439;50.804;4.602;2022-10-16T09:40:48;20.90;97.70
14699;DHT22;7439;50.804;4.602;2022-10-16T09:43:21;20.90;89.40
14699;DHT22;7439;50.804;4.602;2022-10-16T09:45:58;21.10;72.80
14699;DHT22;7439;50.804;4.602;2022-10-16T09:48:28;21.00;56.10
14699;DHT22;7439;50.804;4.602;2022-10-16T09:50:59;20.60;45.80
14699;DHT22;7439;50.804;4.602;2022-10-16T09:53:38;21.30;44.90
14699;DHT22;7439;50.804;4.602;2022-10-16T09:56:06;21.10;33.70
14699;DHT22;7439;50.804;4.602;2022-10-16T09:58:33;21.50;27.50
14699;DHT22;7439;50.804;4.602;2022-10-16T10:01:02;21.90;22.30
14699;DHT22;7439;50.804;4.602;2022-10-16T10:03:39;22.40;16.50
14699;DHT22;7439;50.804;4.602;2022-10-16T10:06:17;22.00;7.60
14699;DHT22;7439;50.804;4.602;2022-10-16T10:09:06;21.80;3.80
14699;DHT22;7439;50.804;4.602;2022-10-16T10:11:45;21.20;1.00
14699;DHT22;7439;50.804;4.602;2022-10-16T10:14:30;21.40;1.00
14699;DHT22;7439;50.804;4.602;2022-10-16T10:17:19;22.00;1.00
14699;DHT22;7439;50.804;4.602;2022-10-16T10:19:48;22.60;1.00
14699;DHT22;7439;50.804;4.602;2022-10-16T10:22:29;22.50;1.00
14699;DHT22;7439;50.804;4.602;2022-10-16T10:25:29;23.00;1.00
14699;DHT22;7439;50.804;4.602;2022-10-16T10:28:27;23.70;1.00
14699;DHT22;7439;50.804;4.602;2022-10-16T10:30:59;23.20;1.00
14699;DHT22;7439;50.804;4.602;2022-10-16T10:33:37;23.00;1.00
14699;DHT22;7439;50.804;4.602;2022-10-16T10:38:57;24.70;1.00
14699;DHT22;7439;50.804;4.602;2022-10-16T10:44:29;23.50;1.00
14699;DHT22;7439;50.804;4.602;2022-10-16T10:47:09;23.90;1.00
14699;DHT22;7439;50.804;4.602;2022-10-16T10:49:50;24.00;1.00
14699;DHT22;7439;50.804;4.602;2022-10-16T10:52:40;23.00;1.00
14699;DHT22;7439;50.804;4.602;2022-10-16T10:55:18;23.00;1.00
14699;DHT22;7439;50.804;4.602;2022-10-16T10:58:08;23.60;1.00
14699;DHT22;7439;50.804;4.602;2022-10-16T11:00:48;24.30;1.00
14699;DHT22;7439;50.804;4.602;2022-10-16T11:03:31;24.80;1.00
14699;DHT22;7439;50.804;4.602;2022-10-16T11:06:06;24.70;1.00
14699;DHT22;7439;50.804;4.602;2022-10-16T11:08:36;23.30;1.00
14699;DHT22;7439;50.804;4.602;2022-10-16T11:11:10;21.50;1.00
14699;DHT22;7439;50.804;4.602;2022-10-16T11:13:40;21.20;1.00
14699;DHT22;7439;50.804;4.602;2022-10-16T11:16:13;21.30;1.00
14699;DHT22;7439;50.804;4.602;2022-10-16T11:18:47;21.10;1.00
14699;DHT22;7439;50.804;4.602;2022-10-16T11:21:19;20.80;1.00
14699;DHT22;7439;50.804;4.602;2022-10-16T11:23:51;20.40;1.00
14699;DHT22;7439;50.804;4.602;2022-10-16T11:26:23;20.50;1.00
14699;DHT22;7439;50.804;4.602;2022-10-16T11:28:54;21.00;1.00
14699;DHT22;7439;50.804;4.602;2022-10-16T11:31:27;21.50;1.00
14699;DHT22;7439;50.804;4.602;2022-10-16T11:34:02;22.40;1.00
14699;DHT22;7439;50.804;4.602;2022-10-16T11:36:36;21.70;1.00
14699;DHT22;7439;50.804;4.602;2022-10-16T11:39:16;21.50;1.00
14699;DHT22;7439;50.804;4.602;2022-10-16T11:41:49;21.70;1.00
14699;DHT22;7439;50.804;4.602;2022-10-16T11:47:25;21.30;1.00
14699;DHT22;7439;50.804;4.602;2022-10-16T11:49:57;20.40;1.00
14699;DHT22;7439;50.804;4.602;2022-10-16T11:52:33;20.40;1.00
14699;DHT22;7439;50.804;4.602;2022-10-16T11:55:09;20.20;1.00
14699;DHT22;7439;50.804;4.602;2022-10-16T11:57:44;20.00;1.00
14699;DHT22;7439;50.804;4.602;2022-10-16T12:00:20;19.90;1.00
14699;DHT22;7439;50.804;4.602;2022-10-16T12:02:55;19.70;1.00
14699;DHT22;7439;50.804;4.602;2022-10-16T12:05:31;19.70;1.00
14699;DHT22;7439;50.804;4.602;2022-10-16T12:08:08;19.70;1.00
14699;DHT22;7439;50.804;4.602;2022-10-16T12:10:38;19.80;1.00
14699;DHT22;7439;50.804;4.602;2022-10-16T12:15:47;19.80;1.00
14699;DHT22;7439;50.804;4.602;2022-10-16T12:18:21;19.70;1.00
14699;DHT22;7439;50.804;4.602;2022-10-16T12:20:55;19.70;1.00
14699;DHT22;7439;50.804;4.602;2022-10-16T12:23:26;20.10;1.00
14699;DHT22;7439;50.804;4.602;2022-10-16T12:25:54;20.40;1.00
14699;DHT22;7439;50.804;4.602;2022-10-16T12:28:27;20.50;1.00
14699;DHT22;7439;50.804;4.602;2022-10-16T12:30:56;20.30;1.00
14699;DHT22;7439;50.804;4.602;2022-10-16T12:33:25;20.00;1.00
14699;DHT22;7439;50.804;4.602;2022-10-16T12:35:53;19.70;1.00
14699;DHT22;7439;50.804;4.602;2022-10-16T12:38:27;19.60;1.00
14699;DHT22;7439;50.804;4.602;2022-10-16T12:40:58;19.70;1.00
14699;DHT22;7439;50.804;4.602;2022-10-16T12:43:34;19.40;1.00
14699;DHT22;7439;50.804;4.602;2022-10-16T12:46:05;19.40;1.00
14699;DHT22;7439;50.804;4.602;2022-10-16T12:48:32;19.30;1.00
14699;DHT22;7439;50.804;4.602;2022-10-16T12:51:10;19.30;1.00
14699;DHT22;7439;50.804;4.602;2022-10-16T12:53:39;19.10;1.00
14699;DHT22;7439;50.804;4.602;2022-10-16T12:56:14;19.00;1.00
14699;DHT22;7439;50.804;4.602;2022-10-16T12:59:01;18.90;1.00
14699;DHT22;7439;50.804;4.602;2022-10-16T13:01:41;18.90;1.00
14699;DHT22;7439;50.804;4.602;2022-10-16T13:04:18;18.80;1.00
14699;DHT22;7439;50.804;4.602;2022-10-16T13:06:53;18.90;1.00
14699;DHT22;7439;50.804;4.602;2022-10-16T13:09:38;18.80;1.00
14699;DHT22;7439;50.804;4.602;2022-10-16T13:12:20;18.70;1.00
14699;DHT22;7439;50.804;4.602;2022-10-16T13:15:20;18.70;1.00
14699;DHT22;7439;50.804;4.602;2022-10-16T13:17:54;18.80;1.00
14699;DHT22;7439;50.804;4.602;2022-10-16T13:20:30;18.90;1.00
14699;DHT22;7439;50.804;4.602;2022-10-16T13:23:05;19.10;1.00
14699;DHT22;7439;50.804;4.602;2022-10-16T13:25:46;19.00;1.00
14699;DHT22;7439;50.804;4.602;2022-10-16T13:28:21;18.90;1.00
14699;DHT22;7439;50.804;4.602;2022-10-16T13:30:52;18.90;1.00
14699;DHT22;7439;50.804;4.602;2022-10-16T13:33:26;18.80;1.00
14699;DHT22;7439;50.804;4.602;2022-10-16T13:35:56;18.80;1.00
14699;DHT22;7439;50.804;4.602;2022-10-16T13:38:25;19.00;1.00
14699;DHT22;7439;50.804;4.602;2022-10-16T13:40:56;19.20;1.00
14699;DHT22;7439;50.804;4.602;2022-10-16T13:43:26;19.70;1.00
14699;DHT22;7439;50.804;4.602;2022-10-16T13:46:00;20.40;1.00
14699;DHT22;7439;50.804;4.602;2022-10-16T13:48:27;20.80;1.00
14699;DHT22;7439;50.804;4.602;2022-10-16T13:51:06;20.80;1.00
14699;DHT22;7439;50.804;4.602;2022-10-16T13:53:34;20.60;1.00
14699;DHT22;7439;50.804;4.602;2022-10-16T13:56:06;20.10;1.00
14699;DHT22;7439;50.804;4.602;2022-10-16T13:58:33;19.60;1.00
14699;DHT22;7439;50.804;4.602;2022-10-16T14:01:02;19.40;1.00
14699;DHT22;7439;50.804;4.602;2022-10-16T14:03:32;19.00;1.00
14699;DHT22;7439;50.804;4.602;2022-10-16T14:06:03;18.90;1.00
14699;DHT22;7439;50.804;4.602;2022-10-16T14:08:32;18.80;1.00
14699;DHT22;7439;50.804;4.602;2022-10-16T14:11:00;18.90;1.00
14699;DHT22;7439;50.804;4.602;2022-10-16T14:13:37;18.90;1.00
14699;DHT22;7439;50.804;4.602;2022-10-16T14:16:07;18.90;1.00
14699;DHT22;7439;50.804;4.602;2022-10-16T14:18:37;18.70;1.00
14699;DHT22;7439;50.804;4.602;2022-10-16T14:21:07;18.70;1.00
14699;DHT22;7439;50.804;4.602;2022-10-16T14:23:36;18.70;1.00
14699;DHT22;7439;50.804;4.602;2022-10-16T14:26:15;18.80;1.00
14699;DHT22;7439;50.804;4.602;2022-10-16T14:28:44;18.80;1.00
14699;DHT22;7439;50.804;4.602;2022-10-16T14:31:30;18.80;1.00
14699;DHT22;7439;50.804;4.602;2022-10-16T14:33:58;18.80;1.00
14699;DHT22;7439;50.804;4.602;2022-10-16T14:36:27;18.70;1.00
14699;DHT22;7439;50.804;4.602;2022-10-16T14:39:03;18.70;1.00
14699;DHT22;7439;50.804;4.602;2022-10-16T14:41:32;18.80;1.00
14699;DHT22;7439;50.804;4.602;2022-10-16T14:44:03;18.70;22.30
14699;DHT22;7439;50.804;4.602;2022-10-16T14:46:34;18.70;18.90
14699;DHT22;7439;50.804;4.602;2022-10-16T14:49:05;18.80;26.40
14699;DHT22;7439;50.804;4.602;2022-10-16T14:51:41;18.80;1.00
14699;DHT22;7439;50.804;4.602;2022-10-16T14:54:10;18.70;1.00
14699;DHT22;7439;50.804;4.602;2022-10-16T14:56:47;18.50;1.00
14699;DHT22;7439;50.804;4.602;2022-10-16T14:59:19;18.40;1.00
14699;DHT22;7439;50.804;4.602;2022-10-16T15:01:47;18.40;1.00
14699;DHT22;7439;50.804;4.602;2022-10-16T15:04:14;18.40;69.60
14699;DHT22;7439;50.804;4.602;2022-10-16T15:06:42;18.40;99.90
14699;DHT22;7439;50.804;4.602;2022-10-16T15:09:09;18.30;99.90
14699;DHT22;7439;50.804;4.602;2022-10-16T15:11:36;18.20;99.90
14699;DHT22;7439;50.804;4.602;2022-10-16T15:14:03;18.10;99.90
14699;DHT22;7439;50.804;4.602;2022-10-16T15:16:32;18.10;99.90
14699;DHT22;7439;50.804;4.602;2022-10-16T15:18:59;18.00;99.90
14699;DHT22;7439;50.804;4.602;2022-10-16T15:21:28;18.00;99.90
14699;DHT22;7439;50.804;4.602;2022-10-16T15:23:56;17.80;99.90
14699;DHT22;7439;50.804;4.602;2022-10-16T15:26:23;17.80;99.90
14699;DHT22;7439;50.804;4.602;2022-10-16T15:28:51;17.60;1.00
14699;DHT22;7439;50.804;4.602;2022-10-16T15:31:19;17.50;1.00
14699;DHT22;7439;50.804;4.602;2022-10-16T15:33:49;17.50;1.00
14699;DHT22;7439;50.804;4.602;2022-10-16T15:36:25;17.30;1.00
14699;DHT22;7439;50.804;4.602;2022-10-16T15:38:52;17.20;1.00
14699;DHT22;7439;50.804;4.602;2022-10-16T15:41:20;17.10;1.00
14699;DHT22;7439;50.804;4.602;2022-10-16T15:43:48;17.10;1.00
14699;DHT22;7439;50.804;4.602;2022-10-16T15:46:18;17.00;1.00
14699;DHT22;7439;50.804;4.602;2022-10-16T15:48:45;16.90;1.00
14699;DHT22;7439;50.804;4.602;2022-10-16T15:51:14;16.90;1.00
14699;DHT22;7439;50.804;4.602;2022-10-16T15:53:41;16.90;1.00
14699;DHT22;7439;50.804;4.602;2022-10-16T15:56:09;16.80;99.60
14699;DHT22;7439;50.804;4.602;2022-10-16T15:58:37;16.70;99.90
14699;DHT22;7439;50.804;4.602;2022-10-16T16:01:05;16.60;99.90
14699;DHT22;7439;50.804;4.602;2022-10-16T16:03:35;16.50;99.90
14699;DHT22;7439;50.804;4.602;2022-10-16T16:06:06;16.40;99.90
14699;DHT22;7439;50.804;4.602;2022-10-16T16:08:35;16.30;1.00
14699;DHT22;7439;50.804;4.602;2022-10-16T16:11:05;16.20;1.00
14699;DHT22;7439;50.804;4.602;2022-10-16T16:13:32;16.10;1.00
14699;DHT22;7439;50.804;4.602;2022-10-16T16:15:59;16.10;1.00
14699;DHT22;7439;50.804;4.602;2022-10-16T16:18:27;16.10;1.00
14699;DHT22;7439;50.804;4.602;2022-10-16T16:20:54;16.10;1.00
14699;DHT22;7439;50.804;4.602;2022-10-16T16:23:21;16.00;1.00
14699;DHT22;7439;50.804;4.602;2022-10-16T16:26:08;15.90;1.00
14699;DHT22;7439;50.804;4.602;2022-10-16T16:28:36;15.90;1.00